sensor_id;sensor_type;location;lat;lon;timestamp;temperature;humidity
18073;DHT22;9161;47.348;9.648;2023-09-30T00:02:24;19.30;99.90
18073;DHT22;9161;47.348;9.648;2023-09-30T00:07:27;19.20;99.90
18073;DHT22;9161;47.348;9.648;2023-09-30T00:12:30;19.20;99.90
18073;DHT22;9161;47.348;9.648;2023-09-30T00:17:37;19.20;99.90
18073;DHT22;9161;47.348;9.648;2023-09-30T00:22:40;19.20;99.90
18073;DHT22;9161;47.348;9.648;2023-09-30T00:27:45;19.10;99.90
18073;DHT22;9161;47.348;9.648;2023-09-30T00:32:48;19.00;99.90
18073;DHT22;9161;47.348;9.648;2023-09-30T00:37:50;18.90;99.90
18073;DHT22;9161;47.348;9.648;2023-09-30T00:42:54;18.90;99.90
18073;DHT22;9161;47.348;9.648;2023-09-30T00:47:58;18.80;99.90
18073;DHT22;9161;47.348;9.648;2023-09-30T00:53:00;18.80;99.90
18073;DHT22;9161;47.348;9.648;2023-09-30T00:58:03;18.80;99.90
18073;DHT22;9161;47.348;9.648;2023-09-30T01:03:08;18.80;99.90
18073;DHT22;9161;47.348;9.648;2023-09-30T01:08:13;18.70;99.90
18073;DHT22;9161;47.348;9.648;2023-09-30T01:13:16;18.70;99.90
18073;DHT22;9161;47.348;9.648;2023-09-30T01:18:23;18.70;99.90
18073;DHT22;9161;47.348;9.648;2023-09-30T01:23:27;18.60;99.90
18073;DHT22;9161;47.348;9.648;2023-09-30T01:28:30;18.60;99.90
18073;DHT22;9161;47.348;9.648;2023-09-30T01:33:33;18.60;99.90
18073;DHT22;9161;47.348;9.648;2023-09-30T01:38:37;18.50;99.90
18073;DHT22;9161;47.348;9.648;2023-09-30T01:43:39;18.50;99.90
18073;DHT22;9161;47.348;9.648;2023-09-30T01:48:42;18.50;99.90
18073;DHT22;9161;47.348;9.648;2023-09-30T01:53:46;18.50;99.90
18073;DHT22;9161;47.348;9.648;2023-09-30T01:58:48;18.40;99.90
18073;DHT22;9161;47.348;9.648;2023-09-30T02:03:51;18.40;99.90
18073;DHT22;9161;47.348;9.648;2023-09-30T02:08:54;18.30;99.90
18073;DHT22;9161;47.348;9.648;2023-09-30T02:13:57;18.20;99.90
18073;DHT22;9161;47.348;9.648;2023-09-30T02:18:59;18.10;99.90
18073;DHT22;9161;47.348;9.648;2023-09-30T02:24:03;18.00;99.90
18073;DHT22;9161;47.348;9.648;2023-09-30T02:29:08;18.10;99.90
18073;DHT22;9161;47.348;9.648;2023-09-30T02:34:10;18.30;99.90
18073;DHT22;9161;47.348;9.648;2023-09-30T02:39:14;18.30;99.90
18073;DHT22;9161;47.348;9.648;2023-09-30T02:44:17;18.20;99.90
18073;DHT22;9161;47.348;9.648;2023-09-30T02:49:21;18.00;99.90
18073;DHT22;9161;47.348;9.648;2023-09-30T02:54:25;17.90;99.90
18073;DHT22;9161;47.348;9.648;2023-09-30T02:59:28;17.60;99.90
18073;DHT22;9161;47.348;9.648;2023-09-30T03:04:30;17.40;99.90
18073;DHT22;9161;47.348;9.648;2023-09-30T03:09:34;17.30;99.90
18073;DHT22;9161;47.348;9.648;2023-09-30T03:14:38;17.20;99.90
18073;DHT22;9161;47.348;9.648;2023-09-30T03:19:41;17.20;99.90
18073;DHT22;9161;47.348;9.648;2023-09-30T03:24:46;17.10;99.90
18073;DHT22;9161;47.348;9.648;2023-09-30T03:29:49;17.00;99.90
18073;DHT22;9161;47.348;9.648;2023-09-30T03:34:54;16.80;99.90
18073;DHT22;9161;47.348;9.648;2023-09-30T03:40:01;16.80;99.90
18073;DHT22;9161;47.348;9.648;2023-09-30T03:45:13;16.80;99.90
18073;DHT22;9161;47.348;9.648;2023-09-30T03:50:16;16.80;99.90
18073;DHT22;9161;47.348;9.648;2023-09-30T03:55:21;16.90;99.90
18073;DHT22;9161;47.348;9.648;2023-09-30T04:00:23;17.00;99.90
18073;DHT22;9161;47.348;9.648;2023-09-30T04:05:26;17.10;99.90
18073;DHT22;9161;47.348;9.648;2023-09-30T04:10:32;17.20;99.90
18073;DHT22;9161;47.348;9.648;2023-09-30T04:15:35;17.20;99.90
18073;DHT22;9161;47.348;9.648;2023-09-30T04:20:37;17.30;99.90
18073;DHT22;9161;47.348;9.648;2023-09-30T04:25:42;17.30;99.90
18073;DHT22;9161;47.348;9.648;2023-09-30T04:30:46;17.40;99.90
18073;DHT22;9161;47.348;9.648;2023-09-30T04:35:49;17.50;99.90
18073;DHT22;9161;47.348;9.648;2023-09-30T04:40:52;17.50;99.90
18073;DHT22;9161;47.348;9.648;2023-09-30T04:45:55;17.50;99.90
18073;DHT22;9161;47.348;9.648;2023-09-30T04:50:59;17.50;99.90
18073;DHT22;9161;47.348;9.648;2023-09-30T04:56:07;17.40;99.90
18073;DHT22;9161;47.348;9.648;2023-09-30T05:01:11;17.30;99.90
18073;DHT22;9161;47.348;9.648;2023-09-30T05:06:14;17.30;99.90
18073;DHT22;9161;47.348;9.648;2023-09-30T05:11:18;17.40;99.90
18073;DHT22;9161;47.348;9.648;2023-09-30T05:16:21;17.50;99.90
18073;DHT22;9161;47.348;9.648;2023-09-30T05:21:23;17.50;99.90
18073;DHT22;9161;47.348;9.648;2023-09-30T05:26:28;17.40;99.90
18073;DHT22;9161;47.348;9.648;2023-09-30T05:31:30;17.30;99.90
18073;DHT22;9161;47.348;9.648;2023-09-30T05:36:35;17.20;99.90
18073;DHT22;9161;47.348;9.648;2023-09-30T05:41:41;17.30;99.90
18073;DHT22;9161;47.348;9.648;2023-09-30T05:46:47;17.30;99.90
18073;DHT22;9161;47.348;9.648;2023-09-30T05:51:51;17.40;99.90
18073;DHT22;9161;47.348;9.648;2023-09-30T05:56:56;17.40;99.90
18073;DHT22;9161;47.348;9.648;2023-09-30T06:02:06;17.50;99.90
18073;DHT22;9161;47.348;9.648;2023-09-30T06:07:17;17.50;99.90
18073;DHT22;9161;47.348;9.648;2023-09-30T06:12:22;17.50;99.90
18073;DHT22;9161;47.348;9.648;2023-09-30T06:17:27;17.50;99.90
18073;DHT22;9161;47.348;9.648;2023-09-30T06:22:29;17.50;99.90
18073;DHT22;9161;47.348;9.648;2023-09-30T06:27:32;17.60;99.90
18073;DHT22;9161;47.348;9.648;2023-09-30T06:32:35;17.60;99.90
18073;DHT22;9161;47.348;9.648;2023-09-30T06:37:37;17.70;99.90
18073;DHT22;9161;47.348;9.648;2023-09-30T06:42:41;17.70;99.90
18073;DHT22;9161;47.348;9.648;2023-09-30T06:47:45;17.80;99.90
18073;DHT22;9161;47.348;9.648;2023-09-30T06:52:48;17.90;99.90
18073;DHT22;9161;47.348;9.648;2023-09-30T06:57:52;17.90;99.90
18073;DHT22;9161;47.348;9.648;2023-09-30T07:02:55;18.00;99.90
18073;DHT22;9161;47.348;9.648;2023-09-30T07:08:00;18.10;99.90
18073;DHT22;9161;47.348;9.648;2023-09-30T07:13:05;18.30;99.90
18073;DHT22;9161;47.348;9.648;2023-09-30T07:18:08;18.40;99.90
18073;DHT22;9161;47.348;9.648;2023-09-30T07:23:11;18.60;99.90
18073;DHT22;9161;47.348;9.648;2023-09-30T07:28:23;18.70;99.90
18073;DHT22;9161;47.348;9.648;2023-09-30T07:33:26;18.90;99.90
18073;DHT22;9161;47.348;9.648;2023-09-30T07:38:29;19.10;99.90
18073;DHT22;9161;47.348;9.648;2023-09-30T07:43:33;19.20;99.90
18073;DHT22;9161;47.348;9.648;2023-09-30T07:48:36;19.60;99.90
18073;DHT22;9161;47.348;9.648;2023-09-30T07:53:40;20.40;99.90
18073;DHT22;9161;47.348;9.648;2023-09-30T07:58:44;21.10;99.90
18073;DHT22;9161;47.348;9.648;2023-09-30T08:03:47;22.00;99.90
18073;DHT22;9161;47.348;9.648;2023-09-30T08:08:49;21.60;99.90
18073;DHT22;9161;47.348;9.648;2023-09-30T08:13:53;21.30;99.90
18073;DHT22;9161;47.348;9.648;2023-09-30T08:18:56;20.80;99.90
18073;DHT22;9161;47.348;9.648;2023-09-30T08:24:02;20.90;99.90
18073;DHT22;9161;47.348;9.648;2023-09-30T08:29:07;21.10;99.90
18073;DHT22;9161;47.348;9.648;2023-09-30T08:34:11;21.20;99.90
18073;DHT22;9161;47.348;9.648;2023-09-30T08:39:16;22.30;99.90
18073;DHT22;9161;47.348;9.648;2023-09-30T08:44:20;22.80;99.90
18073;DHT22;9161;47.348;9.648;2023-09-30T08:49:25;23.40;99.90
18073;DHT22;9161;47.348;9.648;2023-09-30T08:54:29;23.50;99.90
18073;DHT22;9161;47.348;9.648;2023-09-30T08:59:35;23.60;99.90
18073;DHT22;9161;47.348;9.648;2023-09-30T09:04:38;24.30;99.90
18073;DHT22;9161;47.348;9.648;2023-09-30T09:09:41;24.50;99.90
18073;DHT22;9161;47.348;9.648;2023-09-30T09:14:50;24.20;99.90
18073;DHT22;9161;47.348;9.648;2023-09-30T09:19:59;24.60;99.90
18073;DHT22;9161;47.348;9.648;2023-09-30T09:25:02;23.80;99.90
18073;DHT22;9161;47.348;9.648;2023-09-30T09:30:17;24.30;99.90
18073;DHT22;9161;47.348;9.648;2023-09-30T09:35:20;24.80;99.90
18073;DHT22;9161;47.348;9.648;2023-09-30T09:40:25;25.90;99.90
18073;DHT22;9161;47.348;9.648;2023-09-30T09:45:32;25.50;99.90
18073;DHT22;9161;47.348;9.648;2023-09-30T09:50:36;25.70;99.90
18073;DHT22;9161;47.348;9.648;2023-09-30T09:55:42;26.30;99.90
18073;DHT22;9161;47.348;9.648;2023-09-30T10:00:47;26.60;99.90
18073;DHT22;9161;47.348;9.648;2023-09-30T10:05:50;26.20;99.90
18073;DHT22;9161;47.348;9.648;2023-09-30T10:10:56;26.50;99.90
18073;DHT22;9161;47.348;9.648;2023-09-30T10:16:04;25.90;99.90
18073;DHT22;9161;47.348;9.648;2023-09-30T10:21:08;25.00;99.90
18073;DHT22;9161;47.348;9.648;2023-09-30T10:26:15;24.80;99.90
18073;DHT22;9161;47.348;9.648;2023-09-30T10:31:22;24.50;99.90
18073;DHT22;9161;47.348;9.648;2023-09-30T10:36:27;25.80;99.90
18073;DHT22;9161;47.348;9.648;2023-09-30T10:41:50;27.50;99.90
18073;DHT22;9161;47.348;9.648;2023-09-30T10:47:00;27.20;99.90
18073;DHT22;9161;47.348;9.648;2023-09-30T10:52:23;27.80;99.90
18073;DHT22;9161;47.348;9.648;2023-09-30T10:57:28;28.30;99.90
18073;DHT22;9161;47.348;9.648;2023-09-30T11:02:34;28.70;99.90
18073;DHT22;9161;47.348;9.648;2023-09-30T11:07:39;29.50;99.90
18073;DHT22;9161;47.348;9.648;2023-09-30T11:12:54;29.30;99.90
18073;DHT22;9161;47.348;9.648;2023-09-30T11:18:13;29.00;99.90
18073;DHT22;9161;47.348;9.648;2023-09-30T11:23:16;28.80;99.90
18073;DHT22;9161;47.348;9.648;2023-09-30T11:28:18;29.30;99.90
18073;DHT22;9161;47.348;9.648;2023-09-30T11:33:24;29.20;99.90
18073;DHT22;9161;47.348;9.648;2023-09-30T11:38:27;28.10;99.90
18073;DHT22;9161;47.348;9.648;2023-09-30T11:43:31;27.80;99.90
18073;DHT22;9161;47.348;9.648;2023-09-30T11:48:35;28.60;99.90
18073;DHT22;9161;47.348;9.648;2023-09-30T11:53:37;29.50;99.90
18073;DHT22;9161;47.348;9.648;2023-09-30T11:58:40;30.00;99.90
18073;DHT22;9161;47.348;9.648;2023-09-30T12:03:48;30.40;99.90
18073;DHT22;9161;47.348;9.648;2023-09-30T12:08:56;28.70;99.90
18073;DHT22;9161;47.348;9.648;2023-09-30T12:13:59;29.10;99.90
18073;DHT22;9161;47.348;9.648;2023-09-30T12:19:03;29.20;99.90
18073;DHT22;9161;47.348;9.648;2023-09-30T12:24:06;29.50;99.90
18073;DHT22;9161;47.348;9.648;2023-09-30T12:29:11;30.20;99.90
18073;DHT22;9161;47.348;9.648;2023-09-30T12:34:19;29.90;99.90
18073;DHT22;9161;47.348;9.648;2023-09-30T12:39:24;29.50;99.90
18073;DHT22;9161;47.348;9.648;2023-09-30T12:44:32;29.40;99.90
18073;DHT22;9161;47.348;9.648;2023-09-30T12:49:36;29.90;99.90
18073;DHT22;9161;47.348;9.648;2023-09-30T12:54:38;29.80;99.90
18073;DHT22;9161;47.348;9.648;2023-09-30T12:59:42;27.70;99.90
18073;DHT22;9161;47.348;9.648;2023-09-30T13:04:53;28.20;99.90
18073;DHT22;9161;47.348;9.648;2023-09-30T13:09:56;28.30;99.90
18073;DHT22;9161;47.348;9.648;2023-09-30T13:15:00;28.90;99.90
18073;DHT22;9161;47.348;9.648;2023-09-30T13:20:06;28.50;99.90
18073;DHT22;9161;47.348;9.648;2023-09-30T13:25:11;30.00;98.90
18073;DHT22;9161;47.348;9.648;2023-09-30T13:30:20;30.60;99.90
18073;DHT22;9161;47.348;9.648;2023-09-30T13:35:45;30.30;99.80
18073;DHT22;9161;47.348;9.648;2023-09-30T13:40:49;30.60;99.90
18073;DHT22;9161;47.348;9.648;2023-09-30T13:45:53;30.50;98.40
18073;DHT22;9161;47.348;9.648;2023-09-30T13:51:04;28.70;99.10
18073;DHT22;9161;47.348;9.648;2023-09-30T13:56:08;28.70;99.90
18073;DHT22;9161;47.348;9.648;2023-09-30T14:01:19;28.80;99.90
18073;DHT22;9161;47.348;9.648;2023-09-30T14:06:24;28.20;99.90
18073;DHT22;9161;47.348;9.648;2023-09-30T14:11:27;28.50;99.90
18073;DHT22;9161;47.348;9.648;2023-09-30T14:16:31;27.20;99.90
18073;DHT22;9161;47.348;9.648;2023-09-30T14:21:38;26.50;99.90
18073;DHT22;9161;47.348;9.648;2023-09-30T14:26:56;26.60;99.90
18073;DHT22;9161;47.348;9.648;2023-09-30T14:32:02;27.10;99.90
18073;DHT22;9161;47.348;9.648;2023-09-30T14:37:07;26.30;99.90
18073;DHT22;9161;47.348;9.648;2023-09-30T14:42:11;25.90;99.90
18073;DHT22;9161;47.348;9.648;2023-09-30T14:47:14;25.20;99.90
18073;DHT22;9161;47.348;9.648;2023-09-30T14:52:18;25.00;99.90
18073;DHT22;9161;47.348;9.648;2023-09-30T14:57:21;25.10;99.90
18073;DHT22;9161;47.348;9.648;2023-09-30T15:02:23;25.40;99.90
18073;DHT22;9161;47.348;9.648;2023-09-30T15:07:30;25.10;99.90
18073;DHT22;9161;47.348;9.648;2023-09-30T15:12:35;25.30;99.90
18073;DHT22;9161;47.348;9.648;2023-09-30T15:17:39;25.80;99.90
18073;DHT22;9161;47.348;9.648;2023-09-30T15:22:44;25.30;99.90
18073;DHT22;9161;47.348;9.648;2023-09-30T15:27:56;25.10;99.90
18073;DHT22;9161;47.348;9.648;2023-09-30T15:33:02;25.10;99.90
18073;DHT22;9161;47.348;9.648;2023-09-30T15:38:07;25.30;99.90
18073;DHT22;9161;47.348;9.648;2023-09-30T15:43:09;25.10;99.90
18073;DHT22;9161;47.348;9.648;2023-09-30T15:48:13;25.10;99.90
18073;DHT22;9161;47.348;9.648;2023-09-30T15:53:18;24.60;99.90
18073;DHT22;9161;47.348;9.648;2023-09-30T15:58:20;24.00;99.90
18073;DHT22;9161;47.348;9.648;2023-09-30T16:03:25;23.70;99.90
18073;DHT22;9161;47.348;9.648;2023-09-30T16:08:29;23.40;99.90
18073;DHT22;9161;47.348;9.648;2023-09-30T16:13:32;23.10;99.90
18073;DHT22;9161;47.348;9.648;2023-09-30T16:18:35;22.80;99.90
18073;DHT22;9161;47.348;9.648;2023-09-30T16:23:39;22.40;99.90
18073;DHT22;9161;47.348;9.648;2023-09-30T16:28:43;22.10;99.90
18073;DHT22;9161;47.348;9.648;2023-09-30T16:33:47;21.90;99.90
18073;DHT22;9161;47.348;9.648;2023-09-30T16:38:51;21.50;99.90
18073;DHT22;9161;47.348;9.648;2023-09-30T16:43:56;21.20;99.90
18073;DHT22;9161;47.348;9.648;2023-09-30T16:48:59;20.90;99.90
18073;DHT22;9161;47.348;9.648;2023-09-30T16:54:07;20.60;99.90
18073;DHT22;9161;47.348;9.648;2023-09-30T16:59:12;20.30;99.90
18073;DHT22;9161;47.348;9.648;2023-09-30T17:04:17;20.00;99.90
18073;DHT22;9161;47.348;9.648;2023-09-30T17:09:22;19.60;99.90
18073;DHT22;9161;47.348;9.648;2023-09-30T17:14:26;19.40;99.90
18073;DHT22;9161;47.348;9.648;2023-09-30T17:19:31;19.10;99.90
18073;DHT22;9161;47.348;9.648;2023-09-30T17:24:35;18.80;99.90
18073;DHT22;9161;47.348;9.648;2023-09-30T17:29:39;18.50;99.90
18073;DHT22;9161;47.348;9.648;2023-09-30T17:34:42;18.30;99.90
18073;DHT22;9161;47.348;9.648;2023-09-30T17:39:46;18.00;99.90
18073;DHT22;9161;47.348;9.648;2023-09-30T17:44:48;17.90;99.90
18073;DHT22;9161;47.348;9.648;2023-09-30T17:49:54;17.80;99.90
18073;DHT22;9161;47.348;9.648;2023-09-30T17:55:00;17.60;99.90
18073;DHT22;9161;47.348;9.648;2023-09-30T18:00:08;17.40;99.90
18073;DHT22;9161;47.348;9.648;2023-09-30T18:05:14;17.20;99.90
18073;DHT22;9161;47.348;9.648;2023-09-30T18:10:20;17.10;99.90
18073;DHT22;9161;47.348;9.648;2023-09-30T18:15:29;16.90;99.90
18073;DHT22;9161;47.348;9.648;2023-09-30T18:20:35;16.90;99.90
18073;DHT22;9161;47.348;9.648;2023-09-30T18:25:44;16.80;99.90
18073;DHT22;9161;47.348;9.648;2023-09-30T18:30:48;16.70;99.90
18073;DHT22;9161;47.348;9.648;2023-09-30T18:35:53;16.70;99.90
18073;DHT22;9161;47.348;9.648;2023-09-30T18:41:13;16.50;99.90
18073;DHT22;9161;47.348;9.648;2023-09-30T18:46:19;16.40;99.90
18073;DHT22;9161;47.348;9.648;2023-09-30T18:51:25;16.30;99.90
18073;DHT22;9161;47.348;9.648;2023-09-30T18:56:33;16.20;99.90
18073;DHT22;9161;47.348;9.648;2023-09-30T19:01:39;16.10;99.90
18073;DHT22;9161;47.348;9.648;2023-09-30T19:06:45;16.00;99.90
18073;DHT22;9161;47.348;9.648;2023-09-30T19:11:52;15.70;99.90
18073;DHT22;9161;47.348;9.648;2023-09-30T19:16:59;15.70;99.90
18073;DHT22;9161;47.348;9.648;2023-09-30T19:22:06;15.60;99.90
18073;DHT22;9161;47.348;9.648;2023-09-30T19:27:15;15.50;99.90
18073;DHT22;9161;47.348;9.648;2023-09-30T19:32:22;15.50;99.90
18073;DHT22;9161;47.348;9.648;2023-09-30T19:37:28;15.40;99.90
18073;DHT22;9161;47.348;9.648;2023-09-30T19:42:35;15.40;99.90
18073;DHT22;9161;47.348;9.648;2023-09-30T19:47:42;15.40;99.90
18073;DHT22;9161;47.348;9.648;2023-09-30T19:52:50;15.50;99.90
18073;DHT22;9161;47.348;9.648;2023-09-30T19:57:56;15.50;99.90
18073;DHT22;9161;47.348;9.648;2023-09-30T20:03:15;15.50;99.90
18073;DHT22;9161;47.348;9.648;2023-09-30T20:14:43;15.30;99.90
18073;DHT22;9161;47.348;9.648;2023-09-30T20:19:52;15.20;99.90
18073;DHT22;9161;47.348;9.648;2023-09-30T20:24:56;15.10;99.90
18073;DHT22;9161;47.348;9.648;2023-09-30T20:30:06;15.20;99.90
18073;DHT22;9161;47.348;9.648;2023-09-30T20:35:09;15.20;99.90
18073;DHT22;9161;47.348;9.648;2023-09-30T20:40:12;15.00;99.90
18073;DHT22;9161;47.348;9.648;2023-09-30T20:45:16;14.90;99.90
18073;DHT22;9161;47.348;9.648;2023-09-30T20:50:21;14.80;99.90
18073;DHT22;9161;47.348;9.648;2023-09-30T20:55:23;14.80;99.90
18073;DHT22;9161;47.348;9.648;2023-09-30T21:00:29;14.90;99.90
18073;DHT22;9161;47.348;9.648;2023-09-30T21:05:37;14.90;99.90
18073;DHT22;9161;47.348;9.648;2023-09-30T21:10:41;14.80;99.90
18073;DHT22;9161;47.348;9.648;2023-09-30T21:15:44;14.80;99.90
18073;DHT22;9161;47.348;9.648;2023-09-30T21:20:46;14.90;99.90
18073;DHT22;9161;47.348;9.648;2023-09-30T21:25:48;15.10;99.90
18073;DHT22;9161;47.348;9.648;2023-09-30T21:30:52;15.10;99.90
18073;DHT22;9161;47.348;9.648;2023-09-30T21:35:55;15.20;99.90
18073;DHT22;9161;47.348;9.648;2023-09-30T21:40:59;15.10;99.90
18073;DHT22;9161;47.348;9.648;2023-09-30T21:46:06;15.10;99.90
18073;DHT22;9161;47.348;9.648;2023-09-30T21:51:11;15.10;99.90
18073;DHT22;9161;47.348;9.648;2023-09-30T21:56:15;15.10;99.90
18073;DHT22;9161;47.348;9.648;2023-09-30T22:06:12;14.90;99.90
18073;DHT22;9161;47.348;9.648;2023-09-30T22:11:15;14.90;99.90
18073;DHT22;9161;47.348;9.648;2023-09-30T22:16:19;14.90;99.90
18073;DHT22;9161;47.348;9.648;2023-09-30T22:21:26;15.00;99.90
18073;DHT22;9161;47.348;9.648;2023-09-30T22:26:30;15.20;99.90
18073;DHT22;9161;47.348;9.648;2023-09-30T22:31:33;15.30;99.90
18073;DHT22;9161;47.348;9.648;2023-09-30T22:36:38;15.30;99.90
18073;DHT22;9161;47.348;9.648;2023-09-30T22:41:46;15.20;99.90
18073;DHT22;9161;47.348;9.648;2023-09-30T22:46:52;15.10;99.90
18073;DHT22;9161;47.348;9.648;2023-09-30T22:51:58;14.90;99.90
18073;DHT22;9161;47.348;9.648;2023-09-30T22:57:00;14.60;99.90
18073;DHT22;9161;47.348;9.648;2023-09-30T23:02:06;14.50;99.90
18073;DHT22;9161;47.348;9.648;2023-09-30T23:07:10;14.30;99.90
18073;DHT22;9161;47.348;9.648;2023-09-30T23:12:13;14.10;99.90
18073;DHT22;9161;47.348;9.648;2023-09-30T23:17:16;14.00;99.90
18073;DHT22;9161;47.348;9.648;2023-09-30T23:22:20;14.00;99.90
18073;DHT22;9161;47.348;9.648;2023-09-30T23:27:23;13.90;99.90
18073;DHT22;9161;47.348;9.648;2023-09-30T23:32:25;13.90;99.90
18073;DHT22;9161;47.348;9.648;2023-09-30T23:37:30;13.80;99.90
18073;DHT22;9161;47.348;9.648;2023-09-30T23:42:32;13.70;99.90
18073;DHT22;9161;47.348;9.648;2023-09-30T23:47:39;13.60;99.90
18073;DHT22;9161;47.348;9.648;2023-09-30T23:52:53;13.50;99.90
18073;DHT22;9161;47.348;9.648;2023-09-30T23:57:59;13.60;99.90
